Airfield :
LOGIN :

Register | Disclaimer

   EN    FR    IT 

 










Legend :    VFR   Marginal VFR   IFR   Intensive IFR   Very Intensive IFR
Visi :
Ceiling :
>= 8 km
>= 3000ft
5 to 8 km
1000 to 3000 ft
1500m to 5 km
500 to 1000 ft
800 to 1500m
200 to 500 ft
< 800m
< 200 ft
Symbols :   Thunderstorms  Fog  Heavy snow  Heavy precipitations  Wind > 20 kt
SIGMETs :     Misc.  Thunderstorms  Icing  Turbulence  Mountain Waves  Volcanic Ashes







- Airport Elevation : 844 ft
- IATA code : OSR


LKMT - Ostrava-Mosnov

CURRENT METAR :
  • 200330Z 23008KT 9999 OVC044 02/M00 Q1011 NOSIG

EXPIRED METARs :
  • 200300Z 24007KT 9999 BKN039 02/M01 Q1011 NOSIG
  • 200230Z 16005KT CAVOK 01/01 Q1010 NOSIG
  • 200200Z 15005KT CAVOK 01/01 Q1010 NOSIG
  • 200130Z 32003KT 9999 SCT019 BKN027 OVC036 01/00 Q1010 NOSIG
  • 200100Z 31005KT 270V360 7000 -SN FEW005 SCT009 OVC018 01/M00 Q1010 NOSIG

TAF TAF LKMT
Valid from the 20 at 00:00 until the 21 at 06:00 UTC


192300Z 2000/2106 23012KT 9999 BKN025
TEMPO 2000/2106 24014G26KT
TEMPO 2000/2102 4000 RASN BKN012
BECMG 2102/2104 7000 RASN BKN012
TEMPO 2104/2106 4000 SN BKN008
PROB30
TEMPO 2104/2106 2000 SN BR BKN004
No reported NOTAMs for that airfield.



MET'MAP, your aeronautical weather chart ! - Copyright ORBIFLY December 2007 - Disclaimer

ORBIFLY MET'MAP TEAM :

Programming & Development : Alexandra Zaïnal
Concept & Development : Baudouin d'Aumeries
Co-Development & Prog : Marc-Olivier Méhu
Technical & hardware support : Manuel Goepfert

Contact : metmap@orbifly.com




SOURCES & CREDITS :

   NOAA